createdAt,value
2023-01-04T01:31:40.555Z,9.00
2023-01-04T02:26:33.084Z,9.40
2023-01-04T02:56:27.784Z,9.60
2023-01-04T03:15:08.110Z,9.70
2023-01-04T03:39:07.249Z,9.90
2023-01-04T03:44:51.680Z,10.00
2023-01-04T03:56:23.520Z,10.10
2023-01-04T04:07:51.652Z,10.20
2023-01-04T04:18:50.592Z,10.30
2023-01-04T04:24:50.617Z,10.40
2023-01-04T04:30:04.896Z,10.40
2023-01-04T04:42:45.632Z,10.50
2023-01-04T04:49:18.688Z,10.50
2023-01-04T05:00:56.450Z,10.60
2023-01-04T05:05:21.837Z,10.70
2023-01-04T05:10:38.930Z,10.70
2023-01-04T05:16:07.001Z,10.70
2023-01-04T05:21:27.192Z,10.80
2023-01-04T05:26:47.141Z,10.80
2023-01-04T05:32:14.329Z,10.80
2023-01-04T05:37:32.117Z,10.70
2023-01-04T05:42:53.707Z,10.70
2023-01-04T05:48:32.520Z,10.80
2023-01-04T05:53:57.598Z,10.80
2023-01-04T05:59:07.414Z,10.80
2023-01-04T06:04:12.571Z,10.80
2023-01-04T06:09:28.626Z,10.80
2023-01-04T06:14:53.787Z,10.80
2023-01-04T06:20:55.540Z,10.90
2023-01-04T06:32:08.918Z,11.00
2023-01-04T06:44:40.601Z,11.00
2023-01-04T07:04:06.556Z,11.10
2023-01-04T07:07:47.514Z,11.10
2023-01-04T07:12:52.469Z,11.20
2023-01-04T07:17:54.326Z,11.20
2023-01-04T07:22:59.142Z,11.20
2023-01-04T07:28:01.020Z,11.30
2023-01-04T07:33:02.955Z,11.40
2023-01-04T07:38:04.944Z,11.40
2023-01-04T07:43:07.065Z,11.40
2023-01-04T07:48:08.909Z,11.40
2023-01-04T07:53:10.841Z,11.40
2023-01-04T07:58:12.846Z,11.50
2023-01-04T08:03:14.913Z,11.50
2023-01-04T08:08:16.880Z,11.50
2023-01-04T08:13:18.960Z,11.50
2023-01-04T08:18:20.915Z,11.50
2023-01-04T08:23:22.692Z,11.50
2023-01-04T08:28:24.564Z,11.50
2023-01-04T08:33:26.472Z,11.60
2023-01-04T08:38:58.938Z,11.60
2023-01-04T08:43:50.195Z,11.70
2023-01-04T08:48:52.787Z,11.70
2023-01-04T08:53:54.652Z,11.70
2023-01-04T08:58:56.549Z,11.80
2023-01-04T09:03:58.588Z,11.80
2023-01-04T09:09:00.789Z,11.80
2023-01-04T09:14:08.095Z,11.80
2023-01-04T09:19:10.559Z,11.80
2023-01-04T09:24:14.096Z,11.80
2023-01-04T09:29:16.443Z,11.70
2023-01-04T09:34:18.502Z,11.70
2023-01-04T09:39:23.751Z,11.70
2023-01-04T09:45:22.627Z,11.70
2023-01-04T09:50:19.081Z,11.70
2023-01-04T09:55:41.359Z,11.70
2023-01-04T10:00:59.796Z,11.70
2023-01-04T10:06:04.156Z,11.70
2023-01-04T10:11:43.449Z,11.70
2023-01-04T10:17:55.177Z,11.70
2023-01-04T10:23:12.147Z,11.70
2023-01-04T10:28:54.789Z,11.70
2023-01-04T10:34:08.015Z,11.70
2023-01-04T10:39:16.397Z,11.70
2023-01-04T10:44:25.677Z,11.70
2023-01-04T10:49:53.090Z,11.70
2023-01-04T10:55:00.049Z,11.70
2023-01-04T11:00:05.109Z,11.70
2023-01-04T11:05:28.997Z,11.70
2023-01-04T11:10:39.641Z,11.70
2023-01-04T11:15:42.961Z,11.70
2023-01-04T11:20:45.211Z,11.70
2023-01-04T11:25:56.405Z,11.80
2023-01-04T11:31:07.669Z,11.70
2023-01-04T11:36:09.548Z,11.80
2023-01-04T11:41:16.632Z,11.80
2023-01-04T11:46:18.491Z,11.80
2023-01-04T11:51:20.367Z,11.80
2023-01-04T11:56:24.355Z,11.80
2023-01-04T12:01:26.334Z,11.80
2023-01-04T12:06:39.009Z,11.80
2023-01-04T12:11:44.115Z,11.90
2023-01-04T12:16:52.437Z,11.90
2023-01-04T12:21:59.822Z,11.90
2023-01-04T12:27:02.004Z,11.90
2023-01-04T12:32:06.952Z,11.90
2023-01-04T12:37:09.871Z,12.00
2023-01-04T12:42:21.770Z,12.00
2023-01-04T12:47:48.628Z,12.00
2023-01-04T12:59:06.543Z,12.10
2023-01-04T13:04:00.824Z,12.10
2023-01-04T13:09:22.082Z,12.10
2023-01-04T13:14:50.445Z,12.10
2023-01-04T13:19:52.440Z,12.10
2023-01-04T13:24:56.828Z,12.20
2023-01-04T13:29:59.222Z,12.20
2023-01-04T13:35:13.859Z,12.20
2023-01-04T13:40:32.509Z,12.20
2023-01-04T13:45:45.932Z,12.30
2023-01-04T13:51:01.045Z,12.30
2023-01-04T13:56:03.811Z,12.40
2023-01-04T14:01:26.144Z,12.40
2023-01-04T14:06:50.458Z,12.40
2023-01-04T14:12:07.821Z,12.40
2023-01-04T14:17:10.079Z,12.50
2023-01-04T14:22:21.050Z,12.50
2023-01-04T14:27:45.112Z,12.60
2023-01-04T14:33:13.598Z,12.50
2023-01-04T14:38:18.088Z,12.60
2023-01-04T14:43:49.257Z,12.60
2023-01-04T14:48:51.157Z,12.60
2023-01-04T14:53:55.069Z,12.50
2023-01-04T14:58:56.941Z,12.50
2023-01-04T15:03:59.119Z,12.60
2023-01-04T15:09:01.281Z,12.60
2023-01-04T15:14:03.181Z,12.60
2023-01-04T15:19:05.039Z,12.50
2023-01-04T15:24:10.270Z,12.60
2023-01-04T15:29:12.175Z,12.50
2023-01-04T15:34:17.208Z,12.50
2023-01-04T15:39:19.077Z,12.50
2023-01-04T15:44:20.971Z,12.40
2023-01-04T15:49:23.032Z,12.40
2023-01-04T15:54:28.779Z,12.40
2023-01-04T16:00:18.863Z,12.40
2023-01-04T17:02:46.709Z,12.10
2023-01-04T17:26:05.247Z,12.10
2023-01-04T17:33:42.417Z,12.10
2023-01-04T17:44:54.506Z,12.10
2023-01-04T18:16:18.205Z,12.10
2023-01-04T19:17:42.190Z,12.20
2023-01-04T21:28:22.264Z,11.80
2023-01-04T21:39:25.620Z,11.70
2023-01-04T21:44:30.626Z,11.70
2023-01-04T22:06:28.246Z,11.50
2023-01-04T22:12:31.895Z,11.50
2023-01-04T22:18:16.592Z,11.50
2023-01-04T22:29:55.650Z,11.30
2023-01-04T22:36:17.123Z,11.20
2023-01-04T22:41:43.277Z,11.20
2023-01-04T22:47:07.673Z,11.20
2023-01-04T22:52:58.894Z,11.10
2023-01-04T23:03:47.016Z,11.00
2023-01-04T23:10:16.248Z,11.00
2023-01-04T23:15:09.926Z,10.90
2023-01-04T23:25:59.009Z,10.90
2023-01-04T23:37:28.418Z,10.90
2023-01-04T23:43:48.009Z,10.90
2023-01-04T23:48:48.735Z,10.90
2023-01-04T23:54:44.195Z,10.90
